createdAt,value
2023-05-12T00:01:16.502Z,51.94
2023-05-12T00:03:43.406Z,52.35
2023-05-12T00:06:10.439Z,52.37
2023-05-12T00:08:37.504Z,52.63
2023-05-12T00:11:04.220Z,52.37
2023-05-12T00:13:30.894Z,52.25
2023-05-12T00:15:59.171Z,52.35
2023-05-12T00:18:28.322Z,52.27
2023-05-12T00:20:55.290Z,52.55
2023-05-12T00:23:22.959Z,52.50
2023-05-12T00:25:50.400Z,52.76
2023-05-12T00:28:18.446Z,52.64
2023-05-12T00:30:45.202Z,53.14
2023-05-12T00:33:11.924Z,52.99
2023-05-12T00:35:38.548Z,53.03
2023-05-12T00:38:05.146Z,53.06
2023-05-12T00:40:32.031Z,53.14
2023-05-12T00:42:58.673Z,53.14
2023-05-12T00:45:25.328Z,53.29
2023-05-12T00:47:53.494Z,53.24
2023-05-12T00:50:21.640Z,53.32
2023-05-12T00:52:49.487Z,53.48
2023-05-12T00:55:16.464Z,53.67
2023-05-12T00:57:43.868Z,53.76
2023-05-12T01:00:11.076Z,53.81
2023-05-12T01:02:38.003Z,54.13
2023-05-12T01:05:05.721Z,53.73
2023-05-12T01:07:33.717Z,53.92
2023-05-12T01:10:00.389Z,53.91
2023-05-12T01:12:28.090Z,53.98
2023-05-12T01:14:57.505Z,54.10
2023-05-12T01:17:29.157Z,54.13
2023-05-12T01:20:01.646Z,54.16
2023-05-12T01:22:32.033Z,54.02
2023-05-12T01:25:04.256Z,54.06
2023-05-12T01:27:32.414Z,54.04
2023-05-12T01:30:02.000Z,54.00
2023-05-12T01:32:30.403Z,54.10
2023-05-12T01:34:57.342Z,54.27
2023-05-12T01:37:26.851Z,54.31
2023-05-12T01:39:54.174Z,54.64
2023-05-12T01:42:21.183Z,54.20
2023-05-12T01:44:47.888Z,54.40
2023-05-12T01:47:16.007Z,54.44
2023-05-12T01:49:42.729Z,54.59
2023-05-12T01:52:09.849Z,54.51
2023-05-12T01:54:36.461Z,54.53
2023-05-12T01:57:03.322Z,54.64
2023-05-12T01:59:30.056Z,54.72
2023-05-12T02:01:56.912Z,54.41
2023-05-12T02:04:23.677Z,54.61
2023-05-12T02:06:50.301Z,54.86
2023-05-12T02:09:16.923Z,54.64
2023-05-12T02:11:43.801Z,55.11
2023-05-12T02:14:10.465Z,54.96
2023-05-12T02:16:37.125Z,54.87
2023-05-12T02:19:04.345Z,54.70
2023-05-12T02:21:31.401Z,54.94
2023-05-12T02:23:58.026Z,54.83
2023-05-12T02:26:24.777Z,54.99
2023-05-12T02:28:51.371Z,54.88
2023-05-12T02:31:18.024Z,54.92
2023-05-12T02:33:44.682Z,55.05
2023-05-12T02:36:11.428Z,54.64
2023-05-12T02:38:39.947Z,54.67
2023-05-12T02:41:06.975Z,54.71
2023-05-12T02:43:33.656Z,54.62
2023-05-12T02:46:00.468Z,54.71
2023-05-12T02:48:27.291Z,54.52
2023-05-12T02:50:53.863Z,54.58
2023-05-12T02:53:21.163Z,54.46
2023-05-12T02:55:48.094Z,54.31
2023-05-12T02:58:14.802Z,54.51
2023-05-12T03:00:41.406Z,54.29
2023-05-12T03:03:11.376Z,54.49
2023-05-12T03:05:38.048Z,54.54
2023-05-12T03:08:05.015Z,54.29
2023-05-12T03:10:31.933Z,54.28
2023-05-12T03:12:58.523Z,54.20
2023-05-12T03:15:25.121Z,54.24
2023-05-12T03:17:51.835Z,54.13
2023-05-12T03:20:19.032Z,54.21
2023-05-12T03:22:46.204Z,54.11
2023-05-12T03:25:13.023Z,54.23
2023-05-12T03:27:39.644Z,54.15
2023-05-12T03:30:07.022Z,54.15
2023-05-12T03:32:33.768Z,54.12
2023-05-12T03:35:00.422Z,53.92
2023-05-12T03:37:27.090Z,53.99
2023-05-12T03:39:56.177Z,53.68
2023-05-12T03:42:24.158Z,53.77
2023-05-12T03:44:53.742Z,54.21
2023-05-12T03:47:20.680Z,53.72
2023-05-12T03:49:47.323Z,53.50
2023-05-12T03:52:14.128Z,53.54
2023-05-12T03:54:41.326Z,53.42
2023-05-12T03:57:08.266Z,53.19
2023-05-12T03:59:34.927Z,53.18
2023-05-12T04:02:01.756Z,53.15
2023-05-12T04:04:28.567Z,53.02
2023-05-12T04:06:55.208Z,52.80
2023-05-12T04:09:21.957Z,52.75
2023-05-12T04:11:48.608Z,52.67
2023-05-12T04:14:15.211Z,52.47
2023-05-12T04:16:41.978Z,52.38
2023-05-12T04:19:08.714Z,52.21
2023-05-12T04:21:35.747Z,52.00
2023-05-12T04:24:02.341Z,52.11
2023-05-12T04:26:28.926Z,51.77
2023-05-12T04:28:55.514Z,51.61
2023-05-12T04:31:22.259Z,51.53
2023-05-12T04:33:48.931Z,51.42
2023-05-12T04:36:15.602Z,51.44
2023-05-12T04:38:42.420Z,51.34
2023-05-12T04:41:09.314Z,51.16
2023-05-12T04:46:05.721Z,51.07
2023-05-12T04:48:32.349Z,50.84
2023-05-12T04:51:00.314Z,50.70
2023-05-12T04:53:27.718Z,50.73
2023-05-12T04:55:54.625Z,50.86
2023-05-12T04:58:21.296Z,50.37
2023-05-12T05:00:48.030Z,50.51
2023-05-12T05:03:14.938Z,50.17
2023-05-12T05:05:41.615Z,49.79
2023-05-12T05:08:11.232Z,49.73
2023-05-12T05:10:37.877Z,49.36
2023-05-12T05:13:04.521Z,49.00
2023-05-12T05:15:31.616Z,48.60
2023-05-12T05:18:01.723Z,48.46
2023-05-12T05:20:29.297Z,48.23
2023-05-12T05:22:56.311Z,48.04
2023-05-12T05:25:22.956Z,47.95
2023-05-12T05:27:49.764Z,47.99
2023-05-12T05:30:16.917Z,47.74
2023-05-12T05:32:43.646Z,47.74
2023-05-12T05:35:10.674Z,47.76
2023-05-12T05:37:37.855Z,47.42
2023-05-12T05:40:05.183Z,47.21
2023-05-12T05:42:31.885Z,47.15
2023-05-12T05:44:58.845Z,46.66
2023-05-12T05:47:25.806Z,46.55
2023-05-12T05:49:52.787Z,46.40
2023-05-12T05:52:19.714Z,45.94
2023-05-12T05:54:46.609Z,45.78
2023-05-12T05:57:13.517Z,45.54
2023-05-12T05:59:40.404Z,44.98
2023-05-12T06:02:07.165Z,45.17
2023-05-12T06:04:33.793Z,45.09
2023-05-12T06:07:00.493Z,45.01
2023-05-12T06:09:27.184Z,44.88
2023-05-12T06:11:53.820Z,44.17
2023-05-12T06:14:20.668Z,44.35
2023-05-12T06:16:47.277Z,44.24
2023-05-12T06:19:14.045Z,44.09
2023-05-12T06:21:42.266Z,43.74
2023-05-12T06:24:08.918Z,43.66
2023-05-12T06:26:36.744Z,43.34
2023-05-12T06:29:06.286Z,42.97
2023-05-12T06:31:32.905Z,42.96
2023-05-12T06:33:59.787Z,43.04
2023-05-12T06:36:27.388Z,42.96
2023-05-12T06:38:54.013Z,42.71
2023-05-12T06:41:21.532Z,42.28
2023-05-12T06:43:48.456Z,42.24
2023-05-12T06:46:15.131Z,42.22
2023-05-12T06:48:42.060Z,42.26
2023-05-12T06:51:09.389Z,42.03
2023-05-12T06:53:38.871Z,41.97
2023-05-12T06:56:05.908Z,41.55
2023-05-12T06:58:32.868Z,41.26
2023-05-12T07:00:59.579Z,41.42
2023-05-12T07:03:26.323Z,41.24
2023-05-12T07:05:53.167Z,40.76
2023-05-12T07:08:19.820Z,40.31
2023-05-12T07:10:46.403Z,39.96
2023-05-12T07:13:13.101Z,39.56
2023-05-12T07:15:39.778Z,39.28
2023-05-12T07:18:06.462Z,39.24
2023-05-12T07:20:33.066Z,38.99
2023-05-12T07:22:59.657Z,38.82
2023-05-12T07:25:26.382Z,38.71
2023-05-12T07:27:53.142Z,38.63
2023-05-12T07:30:22.562Z,38.44
2023-05-12T07:32:49.398Z,38.16
2023-05-12T07:35:16.241Z,37.84
2023-05-12T07:37:42.965Z,37.84
2023-05-12T07:40:10.969Z,37.79
2023-05-12T07:42:37.804Z,37.36
2023-05-12T07:45:05.310Z,37.23
2023-05-12T07:47:31.982Z,37.04
2023-05-12T07:49:58.729Z,36.98
2023-05-12T07:52:25.414Z,36.85
2023-05-12T07:54:52.075Z,37.01
2023-05-12T07:57:18.908Z,37.25
2023-05-12T07:59:45.657Z,36.85
2023-05-12T08:02:12.357Z,36.96
2023-05-12T08:04:39.300Z,36.90
2023-05-12T08:07:05.981Z,36.48
2023-05-12T08:09:32.659Z,36.35
2023-05-12T08:11:59.647Z,36.27
2023-05-12T08:14:26.334Z,35.99
2023-05-12T08:16:53.104Z,35.88
2023-05-12T08:19:19.805Z,35.74
2023-05-12T08:21:46.488Z,35.90
2023-05-12T08:24:13.154Z,35.83
2023-05-12T08:26:39.773Z,35.87
2023-05-12T08:29:07.006Z,35.68
2023-05-12T08:31:33.753Z,35.85
2023-05-12T08:34:09.665Z,35.67
2023-05-12T08:36:38.741Z,35.46
2023-05-12T08:39:05.834Z,35.05
2023-05-12T08:41:57.267Z,35.10
2023-05-12T08:44:25.432Z,35.07
2023-05-12T08:46:57.143Z,35.14
2023-05-12T08:49:26.729Z,34.88
2023-05-12T08:51:58.162Z,34.59
2023-05-12T08:54:27.814Z,34.82
2023-05-12T08:59:25.092Z,34.55
2023-05-12T09:01:53.539Z,34.16
2023-05-12T09:04:20.417Z,34.39
2023-05-12T09:06:47.630Z,33.99
2023-05-12T09:09:16.413Z,34.00
2023-05-12T09:11:43.717Z,33.79
2023-05-12T09:14:18.899Z,34.02
2023-05-12T09:16:49.279Z,34.09
2023-05-12T09:19:20.964Z,33.56
2023-05-12T09:21:48.894Z,32.97
2023-05-12T09:24:15.833Z,32.91
2023-05-12T09:26:48.455Z,32.73
2023-05-12T09:29:27.923Z,32.57
2023-05-12T09:31:59.485Z,33.15
2023-05-12T09:34:41.315Z,33.28
2023-05-12T09:37:08.593Z,33.35
2023-05-12T09:39:36.357Z,33.92
2023-05-12T09:42:03.166Z,34.28
2023-05-12T09:44:31.953Z,33.94
2023-05-12T09:47:07.452Z,34.05
2023-05-12T09:49:34.171Z,34.08
2023-05-12T09:52:00.900Z,34.22
2023-05-12T09:54:29.546Z,34.23
2023-05-12T09:56:59.704Z,34.13
2023-05-12T09:59:31.155Z,34.18
2023-05-12T10:02:01.306Z,33.68
2023-05-12T10:04:30.184Z,33.94
2023-05-12T10:06:58.884Z,34.17
2023-05-12T10:09:39.241Z,34.34
2023-05-12T10:12:06.480Z,33.92
2023-05-12T10:14:35.573Z,34.01
2023-05-12T10:17:02.727Z,33.87
2023-05-12T10:19:33.116Z,33.94
2023-05-12T10:22:00.957Z,33.71
2023-05-12T10:24:28.536Z,33.98
2023-05-12T10:26:56.747Z,33.59
2023-05-12T10:29:29.971Z,33.91
2023-05-12T10:31:57.615Z,33.73
2023-05-12T10:34:39.908Z,33.66
2023-05-12T10:37:13.880Z,33.84
2023-05-12T10:39:48.105Z,33.81
2023-05-12T10:42:23.076Z,33.88
2023-05-12T10:44:51.746Z,34.11
2023-05-12T10:47:18.947Z,34.39
2023-05-12T10:49:46.489Z,34.55
2023-05-12T10:52:13.896Z,34.32
2023-05-12T10:54:44.861Z,34.42
2023-05-12T10:57:21.166Z,34.90
2023-05-12T10:59:53.426Z,35.11
2023-05-12T11:02:27.442Z,35.48
2023-05-12T11:05:01.914Z,35.71
2023-05-12T11:07:32.844Z,35.71
2023-05-12T11:10:05.329Z,36.15
2023-05-12T11:12:35.417Z,36.59
2023-05-12T11:15:03.639Z,36.67
2023-05-12T11:17:30.509Z,36.90
2023-05-12T11:19:58.167Z,37.11
2023-05-12T11:22:25.157Z,37.16
2023-05-12T11:24:53.155Z,37.35
2023-05-12T11:27:23.137Z,37.48
2023-05-12T11:29:58.446Z,37.23
2023-05-12T11:32:25.550Z,37.23
2023-05-12T11:34:52.666Z,37.36
2023-05-12T11:37:21.385Z,37.33
2023-05-12T11:39:48.791Z,37.53
2023-05-12T11:42:17.737Z,37.88
2023-05-12T11:44:49.537Z,37.75
2023-05-12T11:47:17.463Z,38.06
2023-05-12T11:49:57.689Z,38.25
2023-05-12T11:52:25.139Z,38.35
2023-05-12T11:55:06.154Z,38.74
2023-05-12T11:57:35.095Z,39.05
2023-05-12T12:00:04.803Z,39.06
2023-05-12T12:02:31.889Z,38.81
2023-05-12T12:04:58.949Z,38.81
2023-05-12T12:07:30.533Z,38.83
2023-05-12T12:09:57.549Z,38.42
2023-05-12T12:12:24.438Z,38.50
2023-05-12T12:14:51.904Z,38.39
2023-05-12T12:17:18.484Z,38.38
2023-05-12T12:19:45.045Z,38.70
2023-05-12T12:22:11.713Z,38.94
2023-05-12T12:24:38.281Z,39.33
2023-05-12T12:27:05.503Z,39.59
2023-05-12T12:29:32.345Z,40.17
2023-05-12T12:31:58.988Z,39.97
2023-05-12T12:34:25.753Z,39.90
2023-05-12T12:36:52.427Z,40.29
2023-05-12T12:39:20.100Z,40.32
2023-05-12T12:41:48.155Z,40.54
2023-05-12T12:44:15.064Z,40.52
2023-05-12T12:46:41.771Z,40.55
2023-05-12T12:49:08.399Z,40.68
2023-05-12T12:51:45.015Z,40.89
2023-05-12T12:54:12.650Z,41.17
2023-05-12T12:56:39.425Z,41.37
2023-05-12T12:59:06.522Z,41.42
2023-05-12T13:01:33.989Z,42.16
2023-05-12T13:04:01.255Z,42.39
2023-05-12T13:06:29.252Z,42.73
2023-05-12T13:08:56.579Z,43.21
2023-05-12T13:11:23.689Z,43.35
2023-05-12T13:13:50.345Z,43.73
2023-05-12T13:16:16.967Z,44.10
2023-05-12T13:18:43.874Z,44.70
2023-05-12T13:21:10.538Z,44.90
2023-05-12T13:23:37.286Z,45.31
2023-05-12T13:26:04.036Z,45.66
2023-05-12T13:28:30.800Z,46.12
2023-05-12T13:30:57.621Z,46.28
2023-05-12T13:33:24.478Z,46.29
2023-05-12T13:35:51.092Z,46.68
2023-05-12T13:38:18.213Z,47.28
2023-05-12T13:40:44.835Z,47.39
2023-05-12T13:43:12.442Z,47.76
2023-05-12T13:45:39.105Z,48.00
2023-05-12T13:48:09.610Z,48.33
2023-05-12T13:50:36.295Z,48.77
2023-05-12T13:53:02.878Z,48.94
2023-05-12T13:55:29.536Z,48.90
2023-05-12T13:57:57.648Z,49.18
2023-05-12T14:00:27.113Z,49.27
2023-05-12T14:02:53.987Z,49.54
2023-05-12T14:05:21.457Z,49.74
2023-05-12T14:07:48.330Z,49.88
2023-05-12T14:10:15.246Z,50.07
2023-05-12T14:12:42.852Z,50.49
2023-05-12T14:15:29.551Z,50.58
2023-05-12T14:17:56.890Z,50.99
2023-05-12T14:20:23.492Z,51.38
2023-05-12T14:22:50.897Z,51.38
2023-05-12T14:25:17.706Z,51.74
2023-05-12T14:27:45.382Z,51.69
2023-05-12T14:30:12.471Z,51.82
2023-05-12T14:32:39.151Z,51.89
2023-05-12T14:35:08.247Z,51.87
2023-05-12T14:37:35.299Z,52.13
2023-05-12T14:40:02.162Z,52.39
2023-05-12T14:42:30.210Z,52.60
2023-05-12T14:44:57.139Z,52.73
2023-05-12T14:47:24.194Z,52.98
2023-05-12T14:49:51.194Z,53.29
2023-05-12T14:52:17.847Z,53.68
2023-05-12T14:54:44.506Z,53.71
2023-05-12T14:57:11.782Z,54.04
2023-05-12T14:59:38.698Z,54.41
2023-05-12T15:02:05.718Z,54.72
2023-05-12T15:04:32.420Z,54.85
2023-05-12T15:06:59.661Z,55.23
2023-05-12T15:09:26.261Z,55.42
2023-05-12T15:11:52.967Z,55.72
2023-05-12T15:14:19.667Z,55.71
2023-05-12T15:16:46.574Z,55.77
2023-05-12T15:19:14.165Z,56.26
2023-05-12T15:21:41.471Z,56.25
2023-05-12T15:24:08.206Z,56.62
2023-05-12T15:26:36.257Z,56.79
2023-05-12T15:29:04.297Z,56.85
2023-05-12T15:31:31.378Z,57.04
2023-05-12T15:33:58.049Z,57.14
2023-05-12T15:36:24.786Z,57.50
2023-05-12T15:38:51.440Z,57.49
2023-05-12T15:41:18.099Z,57.70
2023-05-12T15:43:45.057Z,57.78
2023-05-12T15:46:11.936Z,57.97
2023-05-12T15:48:39.621Z,58.01
2023-05-12T15:51:06.971Z,58.20
2023-05-12T15:53:34.006Z,58.26
2023-05-12T15:56:02.374Z,58.60
2023-05-12T15:58:29.360Z,58.68
2023-05-12T16:00:56.345Z,58.65
2023-05-12T16:03:23.954Z,58.46
2023-05-12T16:05:51.264Z,58.65
2023-05-12T16:08:18.401Z,58.65
2023-05-12T16:10:45.084Z,58.59
2023-05-12T16:13:11.907Z,58.77
2023-05-12T16:15:38.593Z,58.79
2023-05-12T16:18:07.579Z,58.60
2023-05-12T16:20:36.385Z,58.63
2023-05-12T16:23:02.998Z,58.52
2023-05-12T16:25:29.558Z,58.45
2023-05-12T16:27:56.245Z,58.43
2023-05-12T16:30:22.941Z,58.28
2023-05-12T16:32:49.718Z,58.30
2023-05-12T16:35:16.661Z,58.45
2023-05-12T16:37:43.308Z,58.42
2023-05-12T16:40:10.462Z,58.24
2023-05-12T16:42:37.162Z,58.24
2023-05-12T16:45:03.926Z,58.18
2023-05-12T16:47:30.643Z,58.22
2023-05-12T16:49:59.283Z,58.07
2023-05-12T16:52:26.913Z,58.10
2023-05-12T16:54:55.952Z,58.08
2023-05-12T16:57:22.739Z,58.11
2023-05-12T16:59:49.498Z,58.06
2023-05-12T17:02:16.686Z,58.13
2023-05-12T17:04:43.285Z,58.23
2023-05-12T17:07:10.154Z,58.12
2023-05-12T17:09:36.929Z,58.17
2023-05-12T17:12:04.684Z,58.50
2023-05-12T17:14:31.423Z,58.25
2023-05-12T17:16:58.170Z,58.06
2023-05-12T17:19:24.977Z,58.12
2023-05-12T17:21:52.111Z,58.19
2023-05-12T17:24:18.815Z,58.12
2023-05-12T17:26:45.497Z,58.14
2023-05-12T17:29:12.143Z,58.00
2023-05-12T17:31:38.988Z,58.08
2023-05-12T17:34:06.163Z,58.06
2023-05-12T17:36:33.278Z,58.26
2023-05-12T17:39:00.204Z,58.10
2023-05-12T17:41:29.058Z,58.14
2023-05-12T17:43:57.490Z,58.25
2023-05-12T17:46:24.256Z,58.14
2023-05-12T17:48:51.026Z,58.16
2023-05-12T17:51:17.772Z,57.91
2023-05-12T17:53:44.553Z,57.87
2023-05-12T17:56:11.661Z,57.75
2023-05-12T17:58:38.631Z,57.60
2023-05-12T18:01:05.513Z,57.58
2023-05-12T18:03:32.349Z,57.56
2023-05-12T18:05:59.479Z,57.51
2023-05-12T18:08:27.347Z,57.38
2023-05-12T18:10:54.079Z,57.21
2023-05-12T18:13:20.706Z,57.15
2023-05-12T18:15:48.806Z,57.08
2023-05-12T18:18:15.524Z,56.95
2023-05-12T18:20:42.385Z,56.82
2023-05-12T18:23:11.324Z,56.67
2023-05-12T18:25:38.085Z,56.68
2023-05-12T18:28:06.579Z,56.56
2023-05-12T18:30:33.348Z,56.57
2023-05-12T18:33:00.208Z,56.59
2023-05-12T18:35:27.188Z,56.41
2023-05-12T18:37:53.873Z,56.44
2023-05-12T18:40:20.773Z,56.44
2023-05-12T18:42:47.612Z,56.23
2023-05-12T18:45:14.267Z,56.40
2023-05-12T18:47:41.361Z,56.29
2023-05-12T18:50:08.414Z,56.43
2023-05-12T18:52:35.296Z,56.11
2023-05-12T18:55:02.023Z,56.56
2023-05-12T18:57:28.619Z,56.48
2023-05-12T18:59:55.192Z,56.58
2023-05-12T19:02:21.906Z,56.53
2023-05-12T19:04:48.764Z,56.58
2023-05-12T19:07:15.848Z,56.54
2023-05-12T19:09:43.395Z,56.48
2023-05-12T19:12:11.813Z,56.36
2023-05-12T19:14:43.230Z,56.66
2023-05-12T19:17:10.208Z,56.40
2023-05-12T19:19:40.088Z,56.40
2023-05-12T19:22:06.778Z,56.39
2023-05-12T19:24:34.176Z,56.34
2023-05-12T19:27:01.329Z,56.69
2023-05-12T19:29:28.141Z,56.40
2023-05-12T19:31:54.868Z,56.29
2023-05-12T19:34:21.672Z,56.33
2023-05-12T19:36:48.493Z,56.30
2023-05-12T19:39:15.234Z,56.09
2023-05-12T19:41:41.987Z,56.07
2023-05-12T19:44:08.624Z,55.99
2023-05-12T19:46:35.794Z,56.13
2023-05-12T19:49:02.468Z,56.12
2023-05-12T19:51:29.326Z,56.14
2023-05-12T19:53:56.168Z,55.91
2023-05-12T19:56:22.773Z,55.91
2023-05-12T19:58:49.772Z,56.02
2023-05-12T20:01:16.512Z,55.86
2023-05-12T20:03:43.224Z,55.89
2023-05-12T20:06:10.520Z,55.85
2023-05-12T20:08:37.462Z,55.82
2023-05-12T20:11:04.024Z,55.96
2023-05-12T20:13:31.574Z,55.98
2023-05-12T20:15:58.743Z,55.97
2023-05-12T20:18:25.541Z,55.87
2023-05-12T20:20:52.181Z,55.86
2023-05-12T20:23:18.828Z,55.83
2023-05-12T20:25:45.743Z,55.78
2023-05-12T20:28:12.406Z,55.59
2023-05-12T20:30:39.068Z,55.67
2023-05-12T20:33:05.756Z,55.72
2023-05-12T20:35:32.432Z,55.83
2023-05-12T20:37:59.430Z,55.42
2023-05-12T20:40:26.127Z,55.28
2023-05-12T20:42:52.835Z,55.48
2023-05-12T20:45:20.103Z,55.46
2023-05-12T20:47:47.240Z,55.52
2023-05-12T20:50:13.939Z,55.30
2023-05-12T20:52:41.185Z,55.43
2023-05-12T20:55:09.257Z,55.46
2023-05-12T20:57:36.055Z,55.66
2023-05-12T21:00:02.836Z,55.79
2023-05-12T21:02:29.683Z,55.76
2023-05-12T21:04:56.920Z,55.91
2023-05-12T21:07:23.723Z,55.96
2023-05-12T21:09:50.315Z,56.34
2023-05-12T21:12:16.977Z,56.07
2023-05-12T21:14:45.313Z,56.11
2023-05-12T21:17:13.070Z,56.16
2023-05-12T21:19:40.829Z,56.65
2023-05-12T21:22:09.108Z,56.60
2023-05-12T21:24:37.385Z,56.49
2023-05-12T21:27:05.847Z,56.80
2023-05-12T21:29:33.460Z,56.68
2023-05-12T21:32:01.011Z,56.87
2023-05-12T21:34:28.107Z,56.82
2023-05-12T21:36:55.053Z,56.97
2023-05-12T21:39:22.054Z,57.04
2023-05-12T21:41:49.019Z,57.07
2023-05-12T21:44:16.313Z,56.82
2023-05-12T21:46:43.376Z,56.60
2023-05-12T21:49:10.355Z,56.94
2023-05-12T21:51:38.187Z,57.06
2023-05-12T21:54:04.816Z,57.17
2023-05-12T21:56:31.582Z,57.28
2023-05-12T21:58:58.223Z,57.38
2023-05-12T22:01:24.879Z,57.31
2023-05-12T22:03:51.579Z,57.12
2023-05-12T22:06:18.787Z,57.59
2023-05-12T22:08:45.386Z,57.72
2023-05-12T22:11:12.013Z,57.90
2023-05-12T22:13:39.038Z,58.08
2023-05-12T22:16:06.096Z,58.00
2023-05-12T22:18:33.407Z,58.13
2023-05-12T22:21:00.620Z,58.72
2023-05-12T22:23:27.488Z,58.47
2023-05-12T22:25:54.117Z,58.12
2023-05-12T22:28:20.865Z,58.31
2023-05-12T22:30:47.447Z,58.53
2023-05-12T22:33:14.099Z,58.55
2023-05-12T22:35:40.787Z,58.36
2023-05-12T22:38:11.589Z,58.48
2023-05-12T22:40:38.263Z,58.58
2023-05-12T22:43:04.908Z,58.76
2023-05-12T22:45:31.563Z,58.92
2023-05-12T22:47:58.435Z,59.05
2023-05-12T22:50:25.229Z,59.52
2023-05-12T22:52:57.065Z,59.58
2023-05-12T22:55:26.388Z,59.80
2023-05-12T22:57:53.156Z,59.79
2023-05-12T23:00:20.218Z,59.76
2023-05-12T23:02:47.067Z,59.91
2023-05-12T23:05:14.183Z,60.11
2023-05-12T23:07:40.862Z,60.16
2023-05-12T23:10:08.014Z,60.32
2023-05-12T23:12:34.628Z,60.12
2023-05-12T23:15:01.260Z,60.22
2023-05-12T23:17:28.015Z,60.26
2023-05-12T23:19:54.641Z,60.39
2023-05-12T23:22:21.245Z,60.51
2023-05-12T23:24:47.851Z,60.77
2023-05-12T23:27:14.586Z,61.17
2023-05-12T23:29:41.221Z,61.06
2023-05-12T23:32:08.261Z,60.98
2023-05-12T23:34:36.354Z,60.91
2023-05-12T23:37:02.913Z,60.55
2023-05-12T23:39:29.765Z,60.45
2023-05-12T23:41:56.412Z,59.98
2023-05-12T23:44:22.995Z,60.05
2023-05-12T23:46:49.910Z,59.91
2023-05-12T23:49:16.587Z,60.21
2023-05-12T23:51:43.168Z,60.18
2023-05-12T23:54:10.020Z,60.38
2023-05-12T23:56:36.646Z,60.32
2023-05-12T23:59:03.250Z,60.58
